sensor_id;sensor_type;location;lat;lon;timestamp;temperature;humidity
23207;DHT22;11773;52.570;13.052;2023-08-21T00:01:44;22.90;99.90
23207;DHT22;11773;52.570;13.052;2023-08-21T00:04:14;22.80;99.90
23207;DHT22;11773;52.570;13.052;2023-08-21T00:06:44;22.90;99.90
23207;DHT22;11773;52.570;13.052;2023-08-21T00:09:13;23.00;99.90
23207;DHT22;11773;52.570;13.052;2023-08-21T00:11:43;23.00;99.90
23207;DHT22;11773;52.570;13.052;2023-08-21T00:14:12;23.10;99.90
23207;DHT22;11773;52.570;13.052;2023-08-21T00:16:42;23.10;99.90
23207;DHT22;11773;52.570;13.052;2023-08-21T00:19:11;22.90;99.90
23207;DHT22;11773;52.570;13.052;2023-08-21T00:21:41;22.90;99.90
23207;DHT22;11773;52.570;13.052;2023-08-21T00:24:11;23.00;99.90
23207;DHT22;11773;52.570;13.052;2023-08-21T00:26:41;23.00;99.90
23207;DHT22;11773;52.570;13.052;2023-08-21T00:29:10;22.90;99.90
23207;DHT22;11773;52.570;13.052;2023-08-21T00:31:40;22.80;99.90
23207;DHT22;11773;52.570;13.052;2023-08-21T00:34:09;22.80;99.90
23207;DHT22;11773;52.570;13.052;2023-08-21T00:36:39;22.80;99.90
23207;DHT22;11773;52.570;13.052;2023-08-21T00:39:09;22.80;99.90
23207;DHT22;11773;52.570;13.052;2023-08-21T00:41:38;22.80;99.90
23207;DHT22;11773;52.570;13.052;2023-08-21T00:44:08;22.90;99.90
23207;DHT22;11773;52.570;13.052;2023-08-21T00:46:37;22.80;99.90
23207;DHT22;11773;52.570;13.052;2023-08-21T00:49:07;22.70;99.90
23207;DHT22;11773;52.570;13.052;2023-08-21T00:51:37;22.70;99.90
23207;DHT22;11773;52.570;13.052;2023-08-21T00:54:07;22.70;99.90
23207;DHT22;11773;52.570;13.052;2023-08-21T00:56:37;22.70;99.90
23207;DHT22;11773;52.570;13.052;2023-08-21T00:59:07;22.70;99.90
23207;DHT22;11773;52.570;13.052;2023-08-21T01:01:37;22.60;99.90
23207;DHT22;11773;52.570;13.052;2023-08-21T01:04:07;22.60;99.90
23207;DHT22;11773;52.570;13.052;2023-08-21T01:06:37;22.60;99.90
23207;DHT22;11773;52.570;13.052;2023-08-21T01:09:27;22.70;99.90
23207;DHT22;11773;52.570;13.052;2023-08-21T01:12:17;22.70;99.90
23207;DHT22;11773;52.570;13.052;2023-08-21T01:15:03;22.60;99.90
23207;DHT22;11773;52.570;13.052;2023-08-21T01:17:38;22.60;99.90
23207;DHT22;11773;52.570;13.052;2023-08-21T01:20:09;22.50;99.90
23207;DHT22;11773;52.570;13.052;2023-08-21T01:22:40;22.40;99.90
23207;DHT22;11773;52.570;13.052;2023-08-21T01:25:12;22.30;99.90
23207;DHT22;11773;52.570;13.052;2023-08-21T01:27:48;22.20;99.90
23207;DHT22;11773;52.570;13.052;2023-08-21T01:30:19;22.20;99.90
23207;DHT22;11773;52.570;13.052;2023-08-21T01:33:00;22.30;99.90
23207;DHT22;11773;52.570;13.052;2023-08-21T01:35:39;22.20;99.90
23207;DHT22;11773;52.570;13.052;2023-08-21T01:38:09;22.20;99.90
23207;DHT22;11773;52.570;13.052;2023-08-21T01:40:40;22.30;99.90
23207;DHT22;11773;52.570;13.052;2023-08-21T01:43:09;22.40;99.90
23207;DHT22;11773;52.570;13.052;2023-08-21T01:45:39;22.40;99.90
23207;DHT22;11773;52.570;13.052;2023-08-21T01:48:09;22.40;99.90
23207;DHT22;11773;52.570;13.052;2023-08-21T01:50:38;22.40;99.90
23207;DHT22;11773;52.570;13.052;2023-08-21T01:53:08;22.40;99.90
23207;DHT22;11773;52.570;13.052;2023-08-21T01:55:37;22.40;99.90
23207;DHT22;11773;52.570;13.052;2023-08-21T01:58:07;22.40;99.90
23207;DHT22;11773;52.570;13.052;2023-08-21T02:00:37;22.30;99.90
23207;DHT22;11773;52.570;13.052;2023-08-21T02:03:06;22.40;99.90
23207;DHT22;11773;52.570;13.052;2023-08-21T02:05:39;22.40;99.90
23207;DHT22;11773;52.570;13.052;2023-08-21T02:08:13;22.40;99.90
23207;DHT22;11773;52.570;13.052;2023-08-21T02:10:52;22.40;99.90
23207;DHT22;11773;52.570;13.052;2023-08-21T02:13:22;22.40;99.90
23207;DHT22;11773;52.570;13.052;2023-08-21T02:15:51;22.30;99.90
23207;DHT22;11773;52.570;13.052;2023-08-21T02:18:21;22.30;99.90
23207;DHT22;11773;52.570;13.052;2023-08-21T02:20:50;22.30;99.90
23207;DHT22;11773;52.570;13.052;2023-08-21T02:23:20;22.40;99.90
23207;DHT22;11773;52.570;13.052;2023-08-21T02:25:51;22.40;99.90
23207;DHT22;11773;52.570;13.052;2023-08-21T02:28:21;22.50;99.90
23207;DHT22;11773;52.570;13.052;2023-08-21T02:30:51;22.60;99.90
23207;DHT22;11773;52.570;13.052;2023-08-21T02:33:21;22.50;99.90
23207;DHT22;11773;52.570;13.052;2023-08-21T02:35:50;22.50;99.90
23207;DHT22;11773;52.570;13.052;2023-08-21T02:38:20;22.50;99.90
23207;DHT22;11773;52.570;13.052;2023-08-21T02:40:50;22.50;99.90
23207;DHT22;11773;52.570;13.052;2023-08-21T02:43:19;22.50;99.90
23207;DHT22;11773;52.570;13.052;2023-08-21T02:45:49;22.50;99.90
23207;DHT22;11773;52.570;13.052;2023-08-21T02:48:19;22.50;99.90
23207;DHT22;11773;52.570;13.052;2023-08-21T02:50:49;22.50;99.90
23207;DHT22;11773;52.570;13.052;2023-08-21T02:53:18;22.50;99.90
23207;DHT22;11773;52.570;13.052;2023-08-21T02:55:48;22.60;99.90
23207;DHT22;11773;52.570;13.052;2023-08-21T02:58:17;22.60;99.90
23207;DHT22;11773;52.570;13.052;2023-08-21T03:00:47;22.60;99.90
23207;DHT22;11773;52.570;13.052;2023-08-21T03:03:16;22.70;99.90
23207;DHT22;11773;52.570;13.052;2023-08-21T03:05:46;22.60;99.90
23207;DHT22;11773;52.570;13.052;2023-08-21T03:08:16;22.50;99.90
23207;DHT22;11773;52.570;13.052;2023-08-21T03:10:45;22.50;99.90
23207;DHT22;11773;52.570;13.052;2023-08-21T03:13:15;22.50;99.90
23207;DHT22;11773;52.570;13.052;2023-08-21T03:15:46;22.60;99.90
23207;DHT22;11773;52.570;13.052;2023-08-21T03:18:16;22.60;99.90
23207;DHT22;11773;52.570;13.052;2023-08-21T03:20:46;22.70;99.90
23207;DHT22;11773;52.570;13.052;2023-08-21T03:23:15;22.70;99.90
23207;DHT22;11773;52.570;13.052;2023-08-21T03:25:45;22.60;99.90
23207;DHT22;11773;52.570;13.052;2023-08-21T03:28:14;22.50;99.90
23207;DHT22;11773;52.570;13.052;2023-08-21T03:30:44;22.50;99.90
23207;DHT22;11773;52.570;13.052;2023-08-21T03:33:14;22.50;99.90
23207;DHT22;11773;52.570;13.052;2023-08-21T03:35:43;22.40;99.90
23207;DHT22;11773;52.570;13.052;2023-08-21T03:38:13;22.50;99.90
23207;DHT22;11773;52.570;13.052;2023-08-21T03:40:42;22.50;99.90
23207;DHT22;11773;52.570;13.052;2023-08-21T03:43:12;22.40;99.90
23207;DHT22;11773;52.570;13.052;2023-08-21T03:45:42;22.40;99.90
23207;DHT22;11773;52.570;13.052;2023-08-21T03:48:11;22.40;99.90
23207;DHT22;11773;52.570;13.052;2023-08-21T03:50:41;22.30;99.90
23207;DHT22;11773;52.570;13.052;2023-08-21T03:53:11;22.30;99.90
23207;DHT22;11773;52.570;13.052;2023-08-21T03:55:40;22.30;99.90
23207;DHT22;11773;52.570;13.052;2023-08-21T03:58:10;22.30;99.90
23207;DHT22;11773;52.570;13.052;2023-08-21T04:00:40;22.30;99.90
23207;DHT22;11773;52.570;13.052;2023-08-21T04:03:10;22.40;99.90
23207;DHT22;11773;52.570;13.052;2023-08-21T04:05:40;22.40;99.90
23207;DHT22;11773;52.570;13.052;2023-08-21T04:08:10;22.40;99.90
23207;DHT22;11773;52.570;13.052;2023-08-21T04:10:39;22.40;99.90
23207;DHT22;11773;52.570;13.052;2023-08-21T04:13:09;22.30;99.90
23207;DHT22;11773;52.570;13.052;2023-08-21T04:15:39;22.20;99.90
23207;DHT22;11773;52.570;13.052;2023-08-21T04:18:13;22.30;99.90
23207;DHT22;11773;52.570;13.052;2023-08-21T04:20:44;22.40;99.90
23207;DHT22;11773;52.570;13.052;2023-08-21T04:23:16;22.40;99.90
23207;DHT22;11773;52.570;13.052;2023-08-21T04:25:45;22.30;99.90
23207;DHT22;11773;52.570;13.052;2023-08-21T04:28:15;22.20;99.90
23207;DHT22;11773;52.570;13.052;2023-08-21T04:30:44;22.30;99.90
23207;DHT22;11773;52.570;13.052;2023-08-21T04:33:14;22.30;99.90
23207;DHT22;11773;52.570;13.052;2023-08-21T04:35:44;22.40;99.90
23207;DHT22;11773;52.570;13.052;2023-08-21T04:38:13;22.30;99.90
23207;DHT22;11773;52.570;13.052;2023-08-21T04:40:43;22.40;99.90
23207;DHT22;11773;52.570;13.052;2023-08-21T04:43:12;22.40;99.90
23207;DHT22;11773;52.570;13.052;2023-08-21T04:45:50;22.40;99.90
23207;DHT22;11773;52.570;13.052;2023-08-21T04:48:23;22.10;99.90
23207;DHT22;11773;52.570;13.052;2023-08-21T04:50:52;22.20;99.90
23207;DHT22;11773;52.570;13.052;2023-08-21T04:53:22;22.20;99.90
23207;DHT22;11773;52.570;13.052;2023-08-21T04:55:51;22.20;99.90
23207;DHT22;11773;52.570;13.052;2023-08-21T04:58:21;22.30;99.90
23207;DHT22;11773;52.570;13.052;2023-08-21T05:00:51;22.40;99.90
23207;DHT22;11773;52.570;13.052;2023-08-21T05:03:20;22.50;99.90
23207;DHT22;11773;52.570;13.052;2023-08-21T05:05:54;22.40;99.90
23207;DHT22;11773;52.570;13.052;2023-08-21T05:08:25;22.30;99.90
23207;DHT22;11773;52.570;13.052;2023-08-21T05:10:58;22.30;99.90
23207;DHT22;11773;52.570;13.052;2023-08-21T05:13:29;22.30;99.90
23207;DHT22;11773;52.570;13.052;2023-08-21T05:15:58;22.40;99.90
23207;DHT22;11773;52.570;13.052;2023-08-21T05:18:28;22.40;99.90
23207;DHT22;11773;52.570;13.052;2023-08-21T05:20:58;22.30;99.90
23207;DHT22;11773;52.570;13.052;2023-08-21T05:23:27;22.50;99.90
23207;DHT22;11773;52.570;13.052;2023-08-21T05:25:57;22.40;99.90
23207;DHT22;11773;52.570;13.052;2023-08-21T05:28:26;22.60;99.90
23207;DHT22;11773;52.570;13.052;2023-08-21T05:30:57;22.60;99.90
23207;DHT22;11773;52.570;13.052;2023-08-21T05:33:26;23.00;99.90
23207;DHT22;11773;52.570;13.052;2023-08-21T05:35:59;23.10;99.90
23207;DHT22;11773;52.570;13.052;2023-08-21T05:38:28;23.10;99.90
23207;DHT22;11773;52.570;13.052;2023-08-21T05:40:58;23.20;99.90
23207;DHT22;11773;52.570;13.052;2023-08-21T05:43:28;23.40;99.90
23207;DHT22;11773;52.570;13.052;2023-08-21T05:45:58;23.50;99.90
23207;DHT22;11773;52.570;13.052;2023-08-21T05:48:27;23.60;99.90
23207;DHT22;11773;52.570;13.052;2023-08-21T05:50:57;23.80;99.90
23207;DHT22;11773;52.570;13.052;2023-08-21T05:53:27;23.80;99.90
23207;DHT22;11773;52.570;13.052;2023-08-21T05:55:56;23.90;99.90
23207;DHT22;11773;52.570;13.052;2023-08-21T05:58:26;23.90;99.90
23207;DHT22;11773;52.570;13.052;2023-08-21T06:00:57;24.10;99.90
23207;DHT22;11773;52.570;13.052;2023-08-21T06:03:27;24.50;99.90
23207;DHT22;11773;52.570;13.052;2023-08-21T06:05:57;24.90;99.90
23207;DHT22;11773;52.570;13.052;2023-08-21T06:08:26;25.20;99.90
23207;DHT22;11773;52.570;13.052;2023-08-21T06:10:56;25.60;99.90
23207;DHT22;11773;52.570;13.052;2023-08-21T06:13:26;25.90;99.90
23207;DHT22;11773;52.570;13.052;2023-08-21T06:15:56;26.30;99.90
23207;DHT22;11773;52.570;13.052;2023-08-21T06:18:25;26.60;99.90
23207;DHT22;11773;52.570;13.052;2023-08-21T06:20:55;26.60;99.90
23207;DHT22;11773;52.570;13.052;2023-08-21T06:23:25;26.80;99.90
23207;DHT22;11773;52.570;13.052;2023-08-21T06:25:54;27.10;99.90
23207;DHT22;11773;52.570;13.052;2023-08-21T06:28:24;27.30;99.90
23207;DHT22;11773;52.570;13.052;2023-08-21T06:30:56;27.60;99.90
23207;DHT22;11773;52.570;13.052;2023-08-21T06:33:26;27.80;99.90
23207;DHT22;11773;52.570;13.052;2023-08-21T06:35:56;28.00;99.90
23207;DHT22;11773;52.570;13.052;2023-08-21T06:38:25;28.20;99.90
23207;DHT22;11773;52.570;13.052;2023-08-21T06:40:55;28.30;99.90
23207;DHT22;11773;52.570;13.052;2023-08-21T06:43:25;28.60;99.90
23207;DHT22;11773;52.570;13.052;2023-08-21T06:45:55;28.30;99.90
23207;DHT22;11773;52.570;13.052;2023-08-21T06:48:25;28.00;99.90
23207;DHT22;11773;52.570;13.052;2023-08-21T06:50:54;27.80;99.90
23207;DHT22;11773;52.570;13.052;2023-08-21T06:53:24;27.70;99.90
23207;DHT22;11773;52.570;13.052;2023-08-21T06:55:54;27.60;99.90
23207;DHT22;11773;52.570;13.052;2023-08-21T06:58:24;28.10;99.90
23207;DHT22;11773;52.570;13.052;2023-08-21T07:00:54;28.10;99.90
23207;DHT22;11773;52.570;13.052;2023-08-21T07:03:24;28.30;99.90
23207;DHT22;11773;52.570;13.052;2023-08-21T07:05:55;28.50;99.90
23207;DHT22;11773;52.570;13.052;2023-08-21T07:08:26;28.70;99.90
23207;DHT22;11773;52.570;13.052;2023-08-21T07:10:56;29.00;99.90
23207;DHT22;11773;52.570;13.052;2023-08-21T07:13:25;29.30;99.90
23207;DHT22;11773;52.570;13.052;2023-08-21T07:15:55;29.40;99.90
23207;DHT22;11773;52.570;13.052;2023-08-21T07:18:25;29.50;99.90
23207;DHT22;11773;52.570;13.052;2023-08-21T07:20:54;29.60;99.90
23207;DHT22;11773;52.570;13.052;2023-08-21T07:23:24;29.80;99.90
23207;DHT22;11773;52.570;13.052;2023-08-21T07:25:54;29.70;99.90
23207;DHT22;11773;52.570;13.052;2023-08-21T07:28:23;29.30;99.90
23207;DHT22;11773;52.570;13.052;2023-08-21T07:30:57;29.30;99.90
23207;DHT22;11773;52.570;13.052;2023-08-21T07:33:27;29.50;99.90
23207;DHT22;11773;52.570;13.052;2023-08-21T07:36:00;29.80;99.90
23207;DHT22;11773;52.570;13.052;2023-08-21T07:38:30;29.90;99.90
23207;DHT22;11773;52.570;13.052;2023-08-21T07:41:05;29.90;99.90
23207;DHT22;11773;52.570;13.052;2023-08-21T07:43:39;30.00;99.90
23207;DHT22;11773;52.570;13.052;2023-08-21T07:46:11;29.80;99.90
23207;DHT22;11773;52.570;13.052;2023-08-21T07:48:46;30.10;99.90
23207;DHT22;11773;52.570;13.052;2023-08-21T07:51:16;29.70;99.90
23207;DHT22;11773;52.570;13.052;2023-08-21T07:53:45;29.90;99.90
23207;DHT22;11773;52.570;13.052;2023-08-21T07:56:15;30.10;99.90
23207;DHT22;11773;52.570;13.052;2023-08-21T07:58:44;30.20;99.90
23207;DHT22;11773;52.570;13.052;2023-08-21T08:01:14;29.90;99.90
23207;DHT22;11773;52.570;13.052;2023-08-21T08:03:44;29.70;99.90
23207;DHT22;11773;52.570;13.052;2023-08-21T08:06:13;29.70;99.90
23207;DHT22;11773;52.570;13.052;2023-08-21T08:08:43;29.80;99.90
23207;DHT22;11773;52.570;13.052;2023-08-21T08:11:13;29.50;99.90
23207;DHT22;11773;52.570;13.052;2023-08-21T08:13:43;29.50;99.90
23207;DHT22;11773;52.570;13.052;2023-08-21T08:16:12;29.80;99.90
23207;DHT22;11773;52.570;13.052;2023-08-21T08:18:42;30.00;99.90
23207;DHT22;11773;52.570;13.052;2023-08-21T08:21:11;30.00;99.90
23207;DHT22;11773;52.570;13.052;2023-08-21T08:23:41;30.10;99.90
23207;DHT22;11773;52.570;13.052;2023-08-21T08:26:10;29.90;99.90
23207;DHT22;11773;52.570;13.052;2023-08-21T08:28:40;29.90;99.90
23207;DHT22;11773;52.570;13.052;2023-08-21T08:31:17;29.90;99.90
23207;DHT22;11773;52.570;13.052;2023-08-21T08:33:54;29.50;99.90
23207;DHT22;11773;52.570;13.052;2023-08-21T08:36:24;29.40;99.90
23207;DHT22;11773;52.570;13.052;2023-08-21T08:38:53;29.50;99.90
23207;DHT22;11773;52.570;13.052;2023-08-21T08:41:37;29.70;99.90
23207;DHT22;11773;52.570;13.052;2023-08-21T08:44:06;29.80;99.90
23207;DHT22;11773;52.570;13.052;2023-08-21T08:46:36;29.60;99.90
23207;DHT22;11773;52.570;13.052;2023-08-21T08:49:06;29.60;99.90
23207;DHT22;11773;52.570;13.052;2023-08-21T08:51:38;29.20;99.90
23207;DHT22;11773;52.570;13.052;2023-08-21T08:54:12;29.30;99.90
23207;DHT22;11773;52.570;13.052;2023-08-21T08:56:42;29.40;99.90
23207;DHT22;11773;52.570;13.052;2023-08-21T08:59:13;29.40;99.90
23207;DHT22;11773;52.570;13.052;2023-08-21T09:01:43;29.40;99.90
23207;DHT22;11773;52.570;13.052;2023-08-21T09:04:13;29.00;99.90
23207;DHT22;11773;52.570;13.052;2023-08-21T09:06:43;28.90;99.90
23207;DHT22;11773;52.570;13.052;2023-08-21T09:09:12;28.90;99.90
23207;DHT22;11773;52.570;13.052;2023-08-21T09:14:34;28.90;99.90
23207;DHT22;11773;52.570;13.052;2023-08-21T09:17:04;29.50;99.90
23207;DHT22;11773;52.570;13.052;2023-08-21T09:19:34;29.50;99.90
23207;DHT22;11773;52.570;13.052;2023-08-21T09:22:14;29.30;99.90
23207;DHT22;11773;52.570;13.052;2023-08-21T09:25:01;29.50;99.90
23207;DHT22;11773;52.570;13.052;2023-08-21T09:27:39;29.70;99.90
23207;DHT22;11773;52.570;13.052;2023-08-21T09:30:10;29.60;99.90
23207;DHT22;11773;52.570;13.052;2023-08-21T09:32:57;29.30;99.90
23207;DHT22;11773;52.570;13.052;2023-08-21T09:35:32;29.40;99.90
23207;DHT22;11773;52.570;13.052;2023-08-21T09:38:02;29.50;99.90
23207;DHT22;11773;52.570;13.052;2023-08-21T09:40:32;29.50;99.90
23207;DHT22;11773;52.570;13.052;2023-08-21T09:43:04;29.70;99.90
23207;DHT22;11773;52.570;13.052;2023-08-21T09:45:33;29.90;99.90
23207;DHT22;11773;52.570;13.052;2023-08-21T09:48:04;29.60;99.90
23207;DHT22;11773;52.570;13.052;2023-08-21T09:50:34;29.80;99.90
23207;DHT22;11773;52.570;13.052;2023-08-21T09:53:07;30.10;99.90
23207;DHT22;11773;52.570;13.052;2023-08-21T09:55:38;30.10;99.90
23207;DHT22;11773;52.570;13.052;2023-08-21T09:58:09;30.10;99.90
23207;DHT22;11773;52.570;13.052;2023-08-21T10:00:40;29.90;99.90
23207;DHT22;11773;52.570;13.052;2023-08-21T10:03:11;29.90;99.90
23207;DHT22;11773;52.570;13.052;2023-08-21T10:05:41;29.80;99.90
23207;DHT22;11773;52.570;13.052;2023-08-21T10:08:12;30.10;99.90
23207;DHT22;11773;52.570;13.052;2023-08-21T10:10:44;30.20;99.90
23207;DHT22;11773;52.570;13.052;2023-08-21T10:13:15;30.30;99.90
23207;DHT22;11773;52.570;13.052;2023-08-21T10:15:45;30.20;99.90
23207;DHT22;11773;52.570;13.052;2023-08-21T10:18:23;29.70;99.90
23207;DHT22;11773;52.570;13.052;2023-08-21T10:20:54;29.80;99.90
23207;DHT22;11773;52.570;13.052;2023-08-21T10:23:31;29.60;99.90
23207;DHT22;11773;52.570;13.052;2023-08-21T10:26:03;29.60;99.90
23207;DHT22;11773;52.570;13.052;2023-08-21T10:28:50;29.50;99.90
23207;DHT22;11773;52.570;13.052;2023-08-21T10:31:29;29.50;99.90
23207;DHT22;11773;52.570;13.052;2023-08-21T10:34:03;29.50;99.90
23207;DHT22;11773;52.570;13.052;2023-08-21T10:39:23;29.70;99.90
23207;DHT22;11773;52.570;13.052;2023-08-21T10:41:59;29.80;99.90
23207;DHT22;11773;52.570;13.052;2023-08-21T10:44:52;29.80;99.90
23207;DHT22;11773;52.570;13.052;2023-08-21T10:47:31;29.70;99.90
23207;DHT22;11773;52.570;13.052;2023-08-21T10:50:08;29.40;99.90
23207;DHT22;11773;52.570;13.052;2023-08-21T10:52:39;29.40;99.90
23207;DHT22;11773;52.570;13.052;2023-08-21T10:55:18;29.20;99.90
23207;DHT22;11773;52.570;13.052;2023-08-21T10:57:48;29.50;99.90
23207;DHT22;11773;52.570;13.052;2023-08-21T11:00:19;29.60;99.90
23207;DHT22;11773;52.570;13.052;2023-08-21T11:02:49;29.70;99.90
23207;DHT22;11773;52.570;13.052;2023-08-21T11:05:19;29.70;99.90
23207;DHT22;11773;52.570;13.052;2023-08-21T11:07:49;29.70;99.90
23207;DHT22;11773;52.570;13.052;2023-08-21T11:10:23;29.30;99.90
23207;DHT22;11773;52.570;13.052;2023-08-21T11:12:55;29.50;99.90
23207;DHT22;11773;52.570;13.052;2023-08-21T11:15:28;29.60;99.90
23207;DHT22;11773;52.570;13.052;2023-08-21T11:18:02;29.80;99.90
23207;DHT22;11773;52.570;13.052;2023-08-21T11:20:34;29.90;99.90
23207;DHT22;11773;52.570;13.052;2023-08-21T11:23:06;30.00;99.90
23207;DHT22;11773;52.570;13.052;2023-08-21T11:25:40;30.00;99.90
23207;DHT22;11773;52.570;13.052;2023-08-21T11:28:09;30.00;99.90
23207;DHT22;11773;52.570;13.052;2023-08-21T11:30:39;29.90;99.90
23207;DHT22;11773;52.570;13.052;2023-08-21T11:33:13;29.80;99.90
23207;DHT22;11773;52.570;13.052;2023-08-21T11:35:43;30.00;99.90
23207;DHT22;11773;52.570;13.052;2023-08-21T11:38:21;29.90;99.90
23207;DHT22;11773;52.570;13.052;2023-08-21T11:41:05;30.10;99.90
23207;DHT22;11773;52.570;13.052;2023-08-21T11:43:36;30.20;99.90
23207;DHT22;11773;52.570;13.052;2023-08-21T11:46:08;30.10;99.90
23207;DHT22;11773;52.570;13.052;2023-08-21T11:48:39;30.10;99.90
23207;DHT22;11773;52.570;13.052;2023-08-21T11:51:09;30.20;99.90
23207;DHT22;11773;52.570;13.052;2023-08-21T11:53:41;30.20;99.90
23207;DHT22;11773;52.570;13.052;2023-08-21T11:56:15;30.30;99.90
23207;DHT22;11773;52.570;13.052;2023-08-21T11:58:47;30.30;99.90
23207;DHT22;11773;52.570;13.052;2023-08-21T12:01:21;30.20;99.90
23207;DHT22;11773;52.570;13.052;2023-08-21T12:03:51;30.10;99.90
23207;DHT22;11773;52.570;13.052;2023-08-21T12:06:25;30.30;99.90
23207;DHT22;11773;52.570;13.052;2023-08-21T12:08:56;30.00;99.90
23207;DHT22;11773;52.570;13.052;2023-08-21T12:11:26;29.80;99.90
23207;DHT22;11773;52.570;13.052;2023-08-21T12:13:56;29.70;99.90
23207;DHT22;11773;52.570;13.052;2023-08-21T12:16:25;29.70;99.90
23207;DHT22;11773;52.570;13.052;2023-08-21T12:18:55;29.90;99.90
23207;DHT22;11773;52.570;13.052;2023-08-21T12:21:27;29.90;99.90
23207;DHT22;11773;52.570;13.052;2023-08-21T12:23:57;29.90;99.90
23207;DHT22;11773;52.570;13.052;2023-08-21T12:26:27;29.70;99.90
23207;DHT22;11773;52.570;13.052;2023-08-21T12:28:58;29.80;99.90
23207;DHT22;11773;52.570;13.052;2023-08-21T12:31:28;29.80;99.90
23207;DHT22;11773;52.570;13.052;2023-08-21T12:33:58;29.70;99.90
23207;DHT22;11773;52.570;13.052;2023-08-21T12:36:28;29.60;99.90
23207;DHT22;11773;52.570;13.052;2023-08-21T12:38:57;29.70;99.90
23207;DHT22;11773;52.570;13.052;2023-08-21T12:41:27;29.70;99.90
23207;DHT22;11773;52.570;13.052;2023-08-21T12:43:56;29.70;99.90
23207;DHT22;11773;52.570;13.052;2023-08-21T12:46:26;29.50;99.90
23207;DHT22;11773;52.570;13.052;2023-08-21T12:48:57;29.30;99.90
23207;DHT22;11773;52.570;13.052;2023-08-21T12:51:28;29.40;99.90
23207;DHT22;11773;52.570;13.052;2023-08-21T12:53:58;29.10;99.90
23207;DHT22;11773;52.570;13.052;2023-08-21T12:56:28;29.30;99.90
23207;DHT22;11773;52.570;13.052;2023-08-21T12:58:57;29.40;99.90
23207;DHT22;11773;52.570;13.052;2023-08-21T13:01:28;29.30;99.90
23207;DHT22;11773;52.570;13.052;2023-08-21T13:04:00;29.40;99.90
23207;DHT22;11773;52.570;13.052;2023-08-21T13:06:30;29.40;99.90
23207;DHT22;11773;52.570;13.052;2023-08-21T13:09:00;29.50;99.90
23207;DHT22;11773;52.570;13.052;2023-08-21T13:11:31;29.30;99.90
23207;DHT22;11773;52.570;13.052;2023-08-21T13:14:00;29.10;99.90
23207;DHT22;11773;52.570;13.052;2023-08-21T13:16:31;29.10;99.90
23207;DHT22;11773;52.570;13.052;2023-08-21T13:19:00;29.30;99.90
23207;DHT22;11773;52.570;13.052;2023-08-21T13:21:30;29.50;99.90
23207;DHT22;11773;52.570;13.052;2023-08-21T13:23:59;29.60;99.90
23207;DHT22;11773;52.570;13.052;2023-08-21T13:26:32;29.20;99.90
23207;DHT22;11773;52.570;13.052;2023-08-21T13:29:01;29.50;99.90
23207;DHT22;11773;52.570;13.052;2023-08-21T13:31:31;29.50;99.90
23207;DHT22;11773;52.570;13.052;2023-08-21T13:34:01;29.40;99.90
23207;DHT22;11773;52.570;13.052;2023-08-21T13:36:31;29.50;99.90
23207;DHT22;11773;52.570;13.052;2023-08-21T13:39:01;29.30;99.90
23207;DHT22;11773;52.570;13.052;2023-08-21T13:41:32;29.00;99.90
23207;DHT22;11773;52.570;13.052;2023-08-21T13:44:01;29.20;99.90
23207;DHT22;11773;52.570;13.052;2023-08-21T13:46:35;29.20;99.90
23207;DHT22;11773;52.570;13.052;2023-08-21T13:49:05;29.10;99.90
23207;DHT22;11773;52.570;13.052;2023-08-21T13:51:34;29.20;99.90
23207;DHT22;11773;52.570;13.052;2023-08-21T13:54:04;29.10;99.90
23207;DHT22;11773;52.570;13.052;2023-08-21T13:56:34;29.20;99.90
23207;DHT22;11773;52.570;13.052;2023-08-21T13:59:03;29.10;99.90
23207;DHT22;11773;52.570;13.052;2023-08-21T14:01:33;29.00;99.90
23207;DHT22;11773;52.570;13.052;2023-08-21T14:04:03;28.80;99.90
23207;DHT22;11773;52.570;13.052;2023-08-21T14:06:33;29.00;99.90
23207;DHT22;11773;52.570;13.052;2023-08-21T14:09:02;29.20;99.90
23207;DHT22;11773;52.570;13.052;2023-08-21T14:11:32;29.10;99.90
23207;DHT22;11773;52.570;13.052;2023-08-21T14:14:01;29.10;99.90
23207;DHT22;11773;52.570;13.052;2023-08-21T14:16:31;29.30;99.90
23207;DHT22;11773;52.570;13.052;2023-08-21T14:19:00;29.20;99.90
23207;DHT22;11773;52.570;13.052;2023-08-21T14:21:30;29.20;99.90
23207;DHT22;11773;52.570;13.052;2023-08-21T14:24:00;29.20;99.90
23207;DHT22;11773;52.570;13.052;2023-08-21T14:26:30;29.30;99.90
23207;DHT22;11773;52.570;13.052;2023-08-21T14:28:59;28.90;99.90
23207;DHT22;11773;52.570;13.052;2023-08-21T14:31:29;28.90;99.90
23207;DHT22;11773;52.570;13.052;2023-08-21T14:33:59;28.90;99.90
23207;DHT22;11773;52.570;13.052;2023-08-21T14:36:29;29.20;99.90
23207;DHT22;11773;52.570;13.052;2023-08-21T14:38:59;29.30;99.90
23207;DHT22;11773;52.570;13.052;2023-08-21T14:41:28;29.00;99.90
23207;DHT22;11773;52.570;13.052;2023-08-21T14:43:58;28.70;99.90
23207;DHT22;11773;52.570;13.052;2023-08-21T14:46:28;28.50;99.90
23207;DHT22;11773;52.570;13.052;2023-08-21T14:48:59;28.80;99.90
23207;DHT22;11773;52.570;13.052;2023-08-21T14:51:29;29.00;99.90
23207;DHT22;11773;52.570;13.052;2023-08-21T14:53:59;28.90;99.90
23207;DHT22;11773;52.570;13.052;2023-08-21T14:56:28;29.00;99.90
23207;DHT22;11773;52.570;13.052;2023-08-21T14:58:58;29.10;99.90
23207;DHT22;11773;52.570;13.052;2023-08-21T15:01:28;28.90;99.90
23207;DHT22;11773;52.570;13.052;2023-08-21T15:03:57;28.90;99.90
23207;DHT22;11773;52.570;13.052;2023-08-21T15:06:27;28.70;99.90
23207;DHT22;11773;52.570;13.052;2023-08-21T15:08:56;28.80;99.90
23207;DHT22;11773;52.570;13.052;2023-08-21T15:11:26;28.90;99.90
23207;DHT22;11773;52.570;13.052;2023-08-21T15:13:56;28.90;99.90
23207;DHT22;11773;52.570;13.052;2023-08-21T15:16:25;29.00;99.90
23207;DHT22;11773;52.570;13.052;2023-08-21T15:18:55;28.90;99.90
23207;DHT22;11773;52.570;13.052;2023-08-21T15:21:27;28.70;99.90
23207;DHT22;11773;52.570;13.052;2023-08-21T15:23:57;28.60;99.90
23207;DHT22;11773;52.570;13.052;2023-08-21T15:26:29;28.60;99.90
23207;DHT22;11773;52.570;13.052;2023-08-21T15:29:00;28.70;99.90
23207;DHT22;11773;52.570;13.052;2023-08-21T15:31:30;28.60;99.90
23207;DHT22;11773;52.570;13.052;2023-08-21T15:34:00;28.60;99.90
23207;DHT22;11773;52.570;13.052;2023-08-21T15:36:32;28.40;99.90
23207;DHT22;11773;52.570;13.052;2023-08-21T15:39:02;28.70;99.90
23207;DHT22;11773;52.570;13.052;2023-08-21T15:41:31;28.60;99.90
23207;DHT22;11773;52.570;13.052;2023-08-21T15:44:01;28.70;99.90